sensor_id;sensor_type;location;lat;lon;timestamp;pressure;altitude;pressure_sealevel;temperature;humidity
57024;BME280;42916;54.346;18.562;2024-03-08T00:01:07;101559.13;;;-3.15;100.00
57024;BME280;42916;54.346;18.562;2024-03-08T00:22:50;101542.87;;;-3.28;100.00
57024;BME280;42916;54.346;18.562;2024-03-08T00:29:15;101538.39;;;-3.33;100.00
57024;BME280;42916;54.346;18.562;2024-03-08T00:40:19;101535.08;;;-3.34;100.00
57024;BME280;42916;54.346;18.562;2024-03-08T00:52:44;101527.80;;;-3.44;100.00
57024;BME280;42916;54.346;18.562;2024-03-08T00:55:23;101525.04;;;-3.47;100.00
57024;BME280;42916;54.346;18.562;2024-03-08T00:58:20;101519.10;;;-3.48;100.00
57024;BME280;42916;54.346;18.562;2024-03-08T01:26:52;101499.31;;;-3.50;100.00
57024;BME280;42916;54.346;18.562;2024-03-08T01:37:09;101486.48;;;-3.54;100.00
57024;BME280;42916;54.346;18.562;2024-03-08T01:56:04;101471.90;;;-3.53;100.00
57024;BME280;42916;54.346;18.562;2024-03-08T02:32:21;101454.69;;;-3.65;100.00
57024;BME280;42916;54.346;18.562;2024-03-08T02:55:34;101438.71;;;-3.69;100.00
57024;BME280;42916;54.346;18.562;2024-03-08T03:01:24;101440.15;;;-3.71;100.00
57024;BME280;42916;54.346;18.562;2024-03-08T03:07:57;101433.36;;;-3.74;100.00
57024;BME280;42916;54.346;18.562;2024-03-08T03:29:05;101422.66;;;-3.82;100.00
57024;BME280;42916;54.346;18.562;2024-03-08T03:36:03;101427.02;;;-3.81;100.00
57024;BME280;42916;54.346;18.562;2024-03-08T03:38:47;101426.21;;;-3.80;100.00
57024;BME280;42916;54.346;18.562;2024-03-08T03:42:12;101427.79;;;-3.78;100.00
57024;BME280;42916;54.346;18.562;2024-03-08T03:44:48;101427.95;;;-3.75;100.00
57024;BME280;42916;54.346;18.562;2024-03-08T03:47:31;101428.19;;;-3.72;100.00
57024;BME280;42916;54.346;18.562;2024-03-08T03:50:29;101430.05;;;-3.69;100.00
57024;BME280;42916;54.346;18.562;2024-03-08T03:53:39;101431.65;;;-3.63;100.00
57024;BME280;42916;54.346;18.562;2024-03-08T03:56:25;101430.48;;;-3.58;100.00
57024;BME280;42916;54.346;18.562;2024-03-08T03:59:33;101430.59;;;-3.53;100.00
57024;BME280;42916;54.346;18.562;2024-03-08T04:09:20;101420.56;;;-3.62;100.00
57024;BME280;42916;54.346;18.562;2024-03-08T04:11:57;101421.20;;;-3.67;100.00
57024;BME280;42916;54.346;18.562;2024-03-08T04:14:40;101413.83;;;-3.72;100.00
57024;BME280;42916;54.346;18.562;2024-03-08T04:17:07;101410.98;;;-3.76;100.00
57024;BME280;42916;54.346;18.562;2024-03-08T04:19:37;101411.52;;;-3.76;100.00
57024;BME280;42916;54.346;18.562;2024-03-08T04:26:28;101409.24;;;-3.70;100.00
57024;BME280;42916;54.346;18.562;2024-03-08T04:33:16;101407.80;;;-3.74;100.00
57024;BME280;42916;54.346;18.562;2024-03-08T04:40:11;101400.67;;;-3.73;100.00
57024;BME280;42916;54.346;18.562;2024-03-08T04:57:39;101396.46;;;-3.78;100.00
57024;BME280;42916;54.346;18.562;2024-03-08T05:00:25;101402.96;;;-3.80;100.00
57024;BME280;42916;54.346;18.562;2024-03-08T05:22:02;101393.23;;;-3.80;100.00
57024;BME280;42916;54.346;18.562;2024-03-08T05:30:02;101390.55;;;-3.73;100.00
57024;BME280;42916;54.346;18.562;2024-03-08T05:40:09;101385.92;;;-3.48;100.00
57024;BME280;42916;54.346;18.562;2024-03-08T05:54:18;101387.70;;;-2.57;100.00
57024;BME280;42916;54.346;18.562;2024-03-08T06:05:46;101393.40;;;-2.29;100.00
57024;BME280;42916;54.346;18.562;2024-03-08T06:09:08;101390.04;;;-2.16;100.00
57024;BME280;42916;54.346;18.562;2024-03-08T06:34:07;101397.52;;;-0.83;100.00
57024;BME280;42916;54.346;18.562;2024-03-08T06:45:46;101403.50;;;-0.23;100.00
57024;BME280;42916;54.346;18.562;2024-03-08T06:49:12;101399.35;;;-0.15;100.00
57024;BME280;42916;54.346;18.562;2024-03-08T06:59:24;101399.67;;;-0.18;100.00
57024;BME280;42916;54.346;18.562;2024-03-08T07:16:35;101394.88;;;-0.07;100.00
57024;BME280;42916;54.346;18.562;2024-03-08T07:19:12;101395.09;;;-0.04;100.00
57024;BME280;42916;54.346;18.562;2024-03-08T07:22:18;101393.08;;;-0.01;100.00
57024;BME280;42916;54.346;18.562;2024-03-08T07:25:32;101391.50;;;0.02;100.00
57024;BME280;42916;54.346;18.562;2024-03-08T07:41:15;101372.64;;;0.32;100.00
57024;BME280;42916;54.346;18.562;2024-03-08T07:54:17;101371.30;;;0.48;100.00
57024;BME280;42916;54.346;18.562;2024-03-08T08:15:52;101368.00;;;0.75;100.00
57024;BME280;42916;54.346;18.562;2024-03-08T08:22:43;101371.25;;;0.94;100.00
57024;BME280;42916;54.346;18.562;2024-03-08T08:26:06;101369.58;;;1.06;100.00
57024;BME280;42916;54.346;18.562;2024-03-08T08:29:09;101372.74;;;1.17;100.00
57024;BME280;42916;54.346;18.562;2024-03-08T08:31:44;101374.91;;;1.23;100.00
57024;BME280;42916;54.346;18.562;2024-03-08T08:35:04;101371.91;;;1.34;100.00
57024;BME280;42916;54.346;18.562;2024-03-08T08:38:13;101374.38;;;1.39;100.00
57024;BME280;42916;54.346;18.562;2024-03-08T08:48:42;101366.89;;;1.93;100.00
57024;BME280;42916;54.346;18.562;2024-03-08T08:59:11;101368.53;;;2.10;100.00
57024;BME280;42916;54.346;18.562;2024-03-08T09:05:39;101369.20;;;2.70;100.00
57024;BME280;42916;54.346;18.562;2024-03-08T09:20:07;101355.47;;;4.64;100.00
57024;BME280;42916;54.346;18.562;2024-03-08T09:22:53;101357.02;;;4.83;100.00
57024;BME280;42916;54.346;18.562;2024-03-08T09:25:29;101354.73;;;4.93;100.00
57024;BME280;42916;54.346;18.562;2024-03-08T09:37:27;101346.99;;;6.17;97.42
57024;BME280;42916;54.346;18.562;2024-03-08T09:39:54;101342.16;;;6.52;93.28
57024;BME280;42916;54.346;18.562;2024-03-08T09:42:24;101344.82;;;7.16;89.89
57024;BME280;42916;54.346;18.562;2024-03-08T09:45:35;101340.04;;;7.86;91.11
57024;BME280;42916;54.346;18.562;2024-03-08T09:48:40;101338.59;;;8.25;87.47
57024;BME280;42916;54.346;18.562;2024-03-08T09:51:11;101332.79;;;8.67;80.86
57024;BME280;42916;54.346;18.562;2024-03-08T09:54:10;101335.27;;;8.99;85.89
57024;BME280;42916;54.346;18.562;2024-03-08T09:56:39;101329.58;;;9.41;85.15
57024;BME280;42916;54.346;18.562;2024-03-08T09:59:11;101330.47;;;9.71;80.95
57024;BME280;42916;54.346;18.562;2024-03-08T10:02:34;101328.49;;;10.03;78.73
57024;BME280;42916;54.346;18.562;2024-03-08T10:05:01;101322.55;;;9.93;75.09
57024;BME280;42916;54.346;18.562;2024-03-08T10:07:33;101324.45;;;9.75;72.74
57024;BME280;42916;54.346;18.562;2024-03-08T10:10:08;101319.45;;;10.06;72.15
57024;BME280;42916;54.346;18.562;2024-03-08T10:12:38;101321.34;;;10.53;70.69
57024;BME280;42916;54.346;18.562;2024-03-08T10:15:11;101316.31;;;10.83;70.24
57024;BME280;42916;54.346;18.562;2024-03-08T10:17:48;101315.84;;;11.01;63.16
57024;BME280;42916;54.346;18.562;2024-03-08T10:20:30;101313.52;;;10.87;59.52
57024;BME280;42916;54.346;18.562;2024-03-08T10:23:06;101308.60;;;11.06;59.88
57024;BME280;42916;54.346;18.562;2024-03-08T10:28:25;101314.92;;;10.99;58.07
57024;BME280;42916;54.346;18.562;2024-03-08T10:31:05;101308.70;;;11.10;59.47
57024;BME280;42916;54.346;18.562;2024-03-08T10:34:05;101306.16;;;11.25;58.70
57024;BME280;42916;54.346;18.562;2024-03-08T10:36:41;101310.23;;;11.37;59.58
57024;BME280;42916;54.346;18.562;2024-03-08T10:39:24;101309.70;;;11.68;59.85
57024;BME280;42916;54.346;18.562;2024-03-08T10:41:58;101308.91;;;11.90;56.52
57024;BME280;42916;54.346;18.562;2024-03-08T10:47:01;101302.31;;;11.69;54.03
57024;BME280;42916;54.346;18.562;2024-03-08T10:50:04;101301.83;;;11.46;52.20
57024;BME280;42916;54.346;18.562;2024-03-08T10:52:36;101298.27;;;11.24;50.66
57024;BME280;42916;54.346;18.562;2024-03-08T10:55:05;101298.85;;;10.91;52.01
57024;BME280;42916;54.346;18.562;2024-03-08T10:57:51;101295.92;;;10.55;46.64
57024;BME280;42916;54.346;18.562;2024-03-08T11:00:23;101294.59;;;10.30;47.57
57024;BME280;42916;54.346;18.562;2024-03-08T11:02:54;101294.39;;;10.22;48.99
57024;BME280;42916;54.346;18.562;2024-03-08T11:05:42;101293.36;;;10.02;48.83
57024;BME280;42916;54.346;18.562;2024-03-08T11:10:48;101287.23;;;10.07;51.84
57024;BME280;42916;54.346;18.562;2024-03-08T11:19:07;101277.34;;;9.64;52.91
57024;BME280;42916;54.346;18.562;2024-03-08T11:22:03;101280.93;;;9.57;55.50
57024;BME280;42916;54.346;18.562;2024-03-08T11:24:38;101275.50;;;9.46;57.14
57024;BME280;42916;54.346;18.562;2024-03-08T11:27:09;101275.48;;;9.45;57.50
57024;BME280;42916;54.346;18.562;2024-03-08T11:29:42;101274.81;;;9.32;57.48
57024;BME280;42916;54.346;18.562;2024-03-08T11:32:15;101272.43;;;9.12;58.96
57024;BME280;42916;54.346;18.562;2024-03-08T11:34:49;101276.08;;;8.98;58.96
57024;BME280;42916;54.346;18.562;2024-03-08T11:37:33;101269.48;;;8.77;59.06
57024;BME280;42916;54.346;18.562;2024-03-08T11:40:14;101273.20;;;8.57;60.12
57024;BME280;42916;54.346;18.562;2024-03-08T11:42:55;101269.86;;;8.53;61.22
57024;BME280;42916;54.346;18.562;2024-03-08T11:48:26;101259.55;;;8.27;61.48
57024;BME280;42916;54.346;18.562;2024-03-08T11:51:01;101263.31;;;8.25;63.04
57024;BME280;42916;54.346;18.562;2024-03-08T11:53:28;101258.13;;;8.28;62.50
57024;BME280;42916;54.346;18.562;2024-03-08T11:56:28;101257.55;;;8.20;62.41
57024;BME280;42916;54.346;18.562;2024-03-08T12:03:03;101253.33;;;7.75;63.66
57024;BME280;42916;54.346;18.562;2024-03-08T12:05:34;101252.61;;;7.55;64.13
57024;BME280;42916;54.346;18.562;2024-03-08T12:08:09;101248.63;;;7.46;64.71
57024;BME280;42916;54.346;18.562;2024-03-08T12:11:12;101247.64;;;7.40;64.97
57024;BME280;42916;54.346;18.562;2024-03-08T12:14:11;101244.95;;;7.15;65.41
57024;BME280;42916;54.346;18.562;2024-03-08T12:17:07;101245.82;;;7.01;65.75
57024;BME280;42916;54.346;18.562;2024-03-08T12:19:47;101250.20;;;6.91;66.70
57024;BME280;42916;54.346;18.562;2024-03-08T12:22:34;101244.36;;;6.92;67.24
57024;BME280;42916;54.346;18.562;2024-03-08T12:25:05;101242.28;;;6.94;67.56
57024;BME280;42916;54.346;18.562;2024-03-08T12:27:56;101241.92;;;6.93;67.89
57024;BME280;42916;54.346;18.562;2024-03-08T12:34:15;101234.44;;;6.88;67.70
57024;BME280;42916;54.346;18.562;2024-03-08T12:37:01;101235.58;;;6.76;67.25
57024;BME280;42916;54.346;18.562;2024-03-08T12:40:09;101233.66;;;6.67;67.98
57024;BME280;42916;54.346;18.562;2024-03-08T12:45:52;101223.77;;;6.76;68.43
57024;BME280;42916;54.346;18.562;2024-03-08T12:48:25;101224.97;;;6.71;68.10
57024;BME280;42916;54.346;18.562;2024-03-08T12:50:52;101216.36;;;6.64;68.53
57024;BME280;42916;54.346;18.562;2024-03-08T12:53:24;101214.67;;;6.60;68.79
57024;BME280;42916;54.346;18.562;2024-03-08T12:58:54;101213.88;;;6.56;69.68
57024;BME280;42916;54.346;18.562;2024-03-08T13:01:47;101213.05;;;6.50;69.58
57024;BME280;42916;54.346;18.562;2024-03-08T13:04:17;101218.88;;;6.19;68.36
57024;BME280;42916;54.346;18.562;2024-03-08T13:06:48;101219.03;;;5.93;69.28
57024;BME280;42916;54.346;18.562;2024-03-08T13:09:16;101215.63;;;5.78;70.03
57024;BME280;42916;54.346;18.562;2024-03-08T13:11:51;101210.39;;;5.55;70.42
57024;BME280;42916;54.346;18.562;2024-03-08T13:14:23;101210.13;;;5.42;71.58
57024;BME280;42916;54.346;18.562;2024-03-08T13:16:58;101210.60;;;5.34;72.48
57024;BME280;42916;54.346;18.562;2024-03-08T13:19:26;101210.04;;;5.12;72.53
57024;BME280;42916;54.346;18.562;2024-03-08T13:21:54;101208.34;;;4.98;73.44
57024;BME280;42916;54.346;18.562;2024-03-08T13:28:46;101203.81;;;4.98;74.71
57024;BME280;42916;54.346;18.562;2024-03-08T13:31:13;101199.64;;;4.99;75.08
57024;BME280;42916;54.346;18.562;2024-03-08T13:37:03;101195.88;;;4.97;75.11
57024;BME280;42916;54.346;18.562;2024-03-08T13:43:43;101194.95;;;4.81;75.46
57024;BME280;42916;54.346;18.562;2024-03-08T13:49:50;101190.36;;;4.68;76.94
57024;BME280;42916;54.346;18.562;2024-03-08T13:52:49;101188.14;;;4.60;77.57
57024;BME280;42916;54.346;18.562;2024-03-08T13:59:27;101182.66;;;4.34;78.35
57024;BME280;42916;54.346;18.562;2024-03-08T14:01:55;101178.25;;;4.25;79.00
57024;BME280;42916;54.346;18.562;2024-03-08T14:04:41;101177.17;;;4.09;79.98
57024;BME280;42916;54.346;18.562;2024-03-08T14:07:18;101175.16;;;4.02;80.23
57024;BME280;42916;54.346;18.562;2024-03-08T14:09:52;101175.98;;;3.94;80.92
57024;BME280;42916;54.346;18.562;2024-03-08T14:19:29;101167.73;;;3.65;82.32
57024;BME280;42916;54.346;18.562;2024-03-08T14:22:15;101166.59;;;3.59;82.57
57024;BME280;42916;54.346;18.562;2024-03-08T14:27:52;101159.88;;;3.36;83.60
57024;BME280;42916;54.346;18.562;2024-03-08T14:31:22;101157.30;;;3.28;84.79
57024;BME280;42916;54.346;18.562;2024-03-08T14:34:19;101151.89;;;3.25;85.35
57024;BME280;42916;54.346;18.562;2024-03-08T14:36:58;101151.27;;;3.26;84.88
57024;BME280;42916;54.346;18.562;2024-03-08T14:39:24;101149.75;;;3.29;85.39
57024;BME280;42916;54.346;18.562;2024-03-08T14:41:52;101152.44;;;3.22;86.39
57024;BME280;42916;54.346;18.562;2024-03-08T14:44:26;101153.05;;;3.11;86.44
57024;BME280;42916;54.346;18.562;2024-03-08T14:50:59;101146.61;;;2.83;88.28
57024;BME280;42916;54.346;18.562;2024-03-08T14:53:25;101144.55;;;2.76;89.01
57024;BME280;42916;54.346;18.562;2024-03-08T14:56:47;101141.23;;;2.66;89.53
57024;BME280;42916;54.346;18.562;2024-03-08T14:59:48;101138.71;;;2.58;89.53
57024;BME280;42916;54.346;18.562;2024-03-08T15:13:48;101130.81;;;2.19;91.77
57024;BME280;42916;54.346;18.562;2024-03-08T15:17:07;101129.45;;;2.14;91.40
57024;BME280;42916;54.346;18.562;2024-03-08T15:27:23;101124.77;;;1.97;92.65
57024;BME280;42916;54.346;18.562;2024-03-08T15:30:48;101120.67;;;1.90;93.21
57024;BME280;42916;54.346;18.562;2024-03-08T15:34:04;101118.94;;;1.80;93.40
57024;BME280;42916;54.346;18.562;2024-03-08T15:44:39;101109.48;;;1.44;95.86
57024;BME280;42916;54.346;18.562;2024-03-08T15:48:50;101114.02;;;1.42;96.08
57024;BME280;42916;54.346;18.562;2024-03-08T16:00:03;101103.32;;;1.07;98.66
57024;BME280;42916;54.346;18.562;2024-03-08T16:03:04;101103.83;;;0.90;99.60
57024;BME280;42916;54.346;18.562;2024-03-08T16:20:48;101100.28;;;0.42;100.00
57024;BME280;42916;54.346;18.562;2024-03-08T16:32:18;101097.29;;;0.23;99.76
57024;BME280;42916;54.346;18.562;2024-03-08T16:38:20;101099.95;;;0.05;100.00
57024;BME280;42916;54.346;18.562;2024-03-08T16:51:09;101097.59;;;-0.28;99.94
57024;BME280;42916;54.346;18.562;2024-03-08T16:54:18;101096.69;;;-0.34;100.00
57024;BME280;42916;54.346;18.562;2024-03-08T16:57:05;101100.42;;;-0.42;100.00
57024;BME280;42916;54.346;18.562;2024-03-08T16:59:53;101098.58;;;-0.47;100.00
57024;BME280;42916;54.346;18.562;2024-03-08T17:10:56;101097.02;;;-0.54;100.00
57024;BME280;42916;54.346;18.562;2024-03-08T17:13:43;101093.33;;;-0.59;100.00
57024;BME280;42916;54.346;18.562;2024-03-08T17:16:38;101094.95;;;-0.63;100.00
57024;BME280;42916;54.346;18.562;2024-03-08T17:19:27;101098.60;;;-0.67;100.00
57024;BME280;42916;54.346;18.562;2024-03-08T17:22:22;101094.41;;;-0.69;100.00
57024;BME280;42916;54.346;18.562;2024-03-08T17:24:59;101082.64;;;-0.71;100.00
57024;BME280;42916;54.346;18.562;2024-03-08T17:30:58;101079.67;;;-0.78;100.00
57024;BME280;42916;54.346;18.562;2024-03-08T17:33:47;101078.98;;;-0.78;100.00
57024;BME280;42916;54.346;18.562;2024-03-08T17:36:55;101076.50;;;-0.79;100.00
57024;BME280;42916;54.346;18.562;2024-03-08T17:43:03;101083.34;;;-0.84;100.00
57024;BME280;42916;54.346;18.562;2024-03-08T17:45:55;101084.20;;;-0.85;100.00
57024;BME280;42916;54.346;18.562;2024-03-08T17:48:23;101083.46;;;-0.85;100.00
57024;BME280;42916;54.346;18.562;2024-03-08T17:51:26;101076.54;;;-0.85;100.00
57024;BME280;42916;54.346;18.562;2024-03-08T17:54:12;101082.91;;;-0.83;100.00
57024;BME280;42916;54.346;18.562;2024-03-08T17:57:04;101076.98;;;-0.81;100.00
57024;BME280;42916;54.346;18.562;2024-03-08T17:59:35;101079.64;;;-0.80;100.00
57024;BME280;42916;54.346;18.562;2024-03-08T18:02:33;101077.61;;;-0.77;100.00
57024;BME280;42916;54.346;18.562;2024-03-08T18:17:24;101076.14;;;-0.68;100.00
57024;BME280;42916;54.346;18.562;2024-03-08T18:20:29;101078.14;;;-0.70;100.00
57024;BME280;42916;54.346;18.562;2024-03-08T18:22:58;101078.81;;;-0.72;100.00
57024;BME280;42916;54.346;18.562;2024-03-08T18:25:32;101077.38;;;-0.75;100.00
57024;BME280;42916;54.346;18.562;2024-03-08T18:31:14;101081.33;;;-0.84;100.00
57024;BME280;42916;54.346;18.562;2024-03-08T18:33:44;101079.68;;;-0.86;100.00
57024;BME280;42916;54.346;18.562;2024-03-08T18:36:24;101078.14;;;-0.90;100.00
57024;BME280;42916;54.346;18.562;2024-03-08T18:39:40;101078.27;;;-0.93;100.00
57024;BME280;42916;54.346;18.562;2024-03-08T18:46:41;101078.61;;;-1.00;100.00
57024;BME280;42916;54.346;18.562;2024-03-08T18:49:47;101076.68;;;-1.02;100.00
57024;BME280;42916;54.346;18.562;2024-03-08T18:52:15;101080.25;;;-1.03;100.00
57024;BME280;42916;54.346;18.562;2024-03-08T18:55:11;101075.34;;;-1.06;100.00
57024;BME280;42916;54.346;18.562;2024-03-08T18:58:01;101073.98;;;-1.08;100.00
57024;BME280;42916;54.346;18.562;2024-03-08T19:01:13;101074.61;;;-1.09;100.00
57024;BME280;42916;54.346;18.562;2024-03-08T19:04:12;101064.36;;;-1.10;100.00
57024;BME280;42916;54.346;18.562;2024-03-08T19:10:09;101065.39;;;-1.13;100.00
57024;BME280;42916;54.346;18.562;2024-03-08T19:12:46;101059.98;;;-1.17;100.00
57024;BME280;42916;54.346;18.562;2024-03-08T19:15:47;101060.95;;;-1.23;100.00
57024;BME280;42916;54.346;18.562;2024-03-08T19:18:33;101064.25;;;-1.27;100.00
57024;BME280;42916;54.346;18.562;2024-03-08T19:21:03;101060.65;;;-1.32;100.00
57024;BME280;42916;54.346;18.562;2024-03-08T19:27:29;101060.55;;;-1.31;100.00
57024;BME280;42916;54.346;18.562;2024-03-08T19:29:59;101057.57;;;-1.28;100.00
57024;BME280;42916;54.346;18.562;2024-03-08T19:32:58;101058.23;;;-1.26;100.00
57024;BME280;42916;54.346;18.562;2024-03-08T19:38:56;101059.51;;;-1.28;100.00
57024;BME280;42916;54.346;18.562;2024-03-08T19:41:25;101060.60;;;-1.30;100.00
57024;BME280;42916;54.346;18.562;2024-03-08T19:47:22;101066.82;;;-1.35;100.00
57024;BME280;42916;54.346;18.562;2024-03-08T19:53:26;101067.89;;;-1.32;100.00
57024;BME280;42916;54.346;18.562;2024-03-08T19:55:55;101068.71;;;-1.29;100.00
57024;BME280;42916;54.346;18.562;2024-03-08T19:58:44;101071.45;;;-1.27;100.00
57024;BME280;42916;54.346;18.562;2024-03-08T20:01:30;101068.29;;;-1.24;100.00
57024;BME280;42916;54.346;18.562;2024-03-08T20:03:59;101069.23;;;-1.23;100.00
57024;BME280;42916;54.346;18.562;2024-03-08T20:06:25;101070.78;;;-1.20;100.00
57024;BME280;42916;54.346;18.562;2024-03-08T20:15:51;101065.02;;;-1.07;100.00
57024;BME280;42916;54.346;18.562;2024-03-08T20:18:24;101062.01;;;-1.06;100.00
57024;BME280;42916;54.346;18.562;2024-03-08T20:20:57;101058.67;;;-1.05;100.00
57024;BME280;42916;54.346;18.562;2024-03-08T20:26:32;101056.63;;;-1.04;100.00
57024;BME280;42916;54.346;18.562;2024-03-08T20:28:57;101059.14;;;-1.04;100.00
57024;BME280;42916;54.346;18.562;2024-03-08T20:31:26;101051.14;;;-1.06;100.00
57024;BME280;42916;54.346;18.562;2024-03-08T20:33:54;101042.95;;;-1.07;100.00
57024;BME280;42916;54.346;18.562;2024-03-08T20:36:36;101045.11;;;-1.08;100.00
57024;BME280;42916;54.346;18.562;2024-03-08T20:39:20;101036.44;;;-1.08;100.00
57024;BME280;42916;54.346;18.562;2024-03-08T20:45:09;101028.81;;;-1.14;100.00
57024;BME280;42916;54.346;18.562;2024-03-08T20:47:45;101027.63;;;-1.12;100.00
57024;BME280;42916;54.346;18.562;2024-03-08T20:51:00;101028.30;;;-1.12;100.00
57024;BME280;42916;54.346;18.562;2024-03-08T20:57:08;101018.60;;;-1.15;100.00
57024;BME280;42916;54.346;18.562;2024-03-08T21:03:29;101012.48;;;-1.18;100.00
57024;BME280;42916;54.346;18.562;2024-03-08T21:06:12;101010.98;;;-1.20;100.00
57024;BME280;42916;54.346;18.562;2024-03-08T21:08:49;101005.92;;;-1.23;100.00
57024;BME280;42916;54.346;18.562;2024-03-08T21:11:21;101005.64;;;-1.22;100.00
57024;BME280;42916;54.346;18.562;2024-03-08T21:13:50;101001.69;;;-1.23;100.00
57024;BME280;42916;54.346;18.562;2024-03-08T21:16:22;100995.58;;;-1.26;100.00
57024;BME280;42916;54.346;18.562;2024-03-08T21:18:58;100998.39;;;-1.33;100.00
57024;BME280;42916;54.346;18.562;2024-03-08T21:21:26;100996.27;;;-1.34;100.00
57024;BME280;42916;54.346;18.562;2024-03-08T21:24:01;100997.81;;;-1.35;100.00
57024;BME280;42916;54.346;18.562;2024-03-08T21:29:48;101002.89;;;-1.36;100.00
57024;BME280;42916;54.346;18.562;2024-03-08T21:32:23;101004.60;;;-1.34;100.00
57024;BME280;42916;54.346;18.562;2024-03-08T21:34:52;101000.90;;;-1.29;100.00
57024;BME280;42916;54.346;18.562;2024-03-08T21:37:23;101000.69;;;-1.24;100.00
57024;BME280;42916;54.346;18.562;2024-03-08T21:39:55;101000.15;;;-1.21;100.00
57024;BME280;42916;54.346;18.562;2024-03-08T21:45:39;100993.70;;;-1.20;100.00
57024;BME280;42916;54.346;18.562;2024-03-08T21:48:11;100989.09;;;-1.17;100.00
57024;BME280;42916;54.346;18.562;2024-03-08T21:51:07;100987.96;;;-1.15;100.00
57024;BME280;42916;54.346;18.562;2024-03-08T21:53:37;100985.10;;;-1.13;100.00
57024;BME280;42916;54.346;18.562;2024-03-08T21:56:35;100979.52;;;-1.12;100.00
57024;BME280;42916;54.346;18.562;2024-03-08T21:59:25;100981.97;;;-1.12;100.00
57024;BME280;42916;54.346;18.562;2024-03-08T22:01:55;100979.62;;;-1.13;100.00
57024;BME280;42916;54.346;18.562;2024-03-08T22:05:06;100978.35;;;-1.15;100.00
57024;BME280;42916;54.346;18.562;2024-03-08T22:07:57;100973.96;;;-1.22;100.00
57024;BME280;42916;54.346;18.562;2024-03-08T22:10:31;100975.42;;;-1.24;100.00
57024;BME280;42916;54.346;18.562;2024-03-08T22:15:52;100976.20;;;-1.23;100.00
57024;BME280;42916;54.346;18.562;2024-03-08T22:18:19;100975.55;;;-1.25;100.00
57024;BME280;42916;54.346;18.562;2024-03-08T22:21:00;100979.02;;;-1.28;100.00
57024;BME280;42916;54.346;18.562;2024-03-08T22:23:27;100980.06;;;-1.29;100.00
57024;BME280;42916;54.346;18.562;2024-03-08T22:25:58;100976.98;;;-1.29;100.00
57024;BME280;42916;54.346;18.562;2024-03-08T22:28:45;100975.56;;;-1.28;100.00
57024;BME280;42916;54.346;18.562;2024-03-08T22:31:34;100971.84;;;-1.30;100.00
57024;BME280;42916;54.346;18.562;2024-03-08T22:34:59;100973.50;;;-1.24;100.00
57024;BME280;42916;54.346;18.562;2024-03-08T22:37:28;100971.98;;;-1.27;100.00
57024;BME280;42916;54.346;18.562;2024-03-08T22:42:53;100974.24;;;-1.30;100.00
57024;BME280;42916;54.346;18.562;2024-03-08T22:45:28;100974.08;;;-1.35;100.00
57024;BME280;42916;54.346;18.562;2024-03-08T22:48:00;100969.29;;;-1.38;100.00
57024;BME280;42916;54.346;18.562;2024-03-08T22:50:27;100964.69;;;-1.40;100.00
57024;BME280;42916;54.346;18.562;2024-03-08T23:02:47;100960.19;;;-1.45;100.00
57024;BME280;42916;54.346;18.562;2024-03-08T23:05:32;100962.24;;;-1.42;100.00
57024;BME280;42916;54.346;18.562;2024-03-08T23:08:02;100959.77;;;-1.41;100.00
57024;BME280;42916;54.346;18.562;2024-03-08T23:10:51;100954.21;;;-1.40;100.00
57024;BME280;42916;54.346;18.562;2024-03-08T23:13:20;100954.85;;;-1.36;100.00
57024;BME280;42916;54.346;18.562;2024-03-08T23:15:51;100953.42;;;-1.31;100.00
57024;BME280;42916;54.346;18.562;2024-03-08T23:18:40;100953.90;;;-1.26;100.00
57024;BME280;42916;54.346;18.562;2024-03-08T23:21:21;100958.07;;;-1.25;100.00
57024;BME280;42916;54.346;18.562;2024-03-08T23:23:52;100956.10;;;-1.23;100.00
57024;BME280;42916;54.346;18.562;2024-03-08T23:29:11;100962.95;;;-1.21;100.00
57024;BME280;42916;54.346;18.562;2024-03-08T23:32:00;100962.10;;;-1.16;100.00
57024;BME280;42916;54.346;18.562;2024-03-08T23:35:03;100962.90;;;-1.13;100.00
57024;BME280;42916;54.346;18.562;2024-03-08T23:37:33;100961.27;;;-1.15;100.00
57024;BME280;42916;54.346;18.562;2024-03-08T23:40:02;100960.73;;;-1.17;100.00
57024;BME280;42916;54.346;18.562;2024-03-08T23:42:59;100957.45;;;-1.21;100.00
57024;BME280;42916;54.346;18.562;2024-03-08T23:52:23;100956.97;;;-1.23;100.00
